AirNav   Pilot Hours Calculator
 
 383 users online  

LA08 Jesuits Bend Heliport
Belle Chasse, Louisiana, USA

GOING TO BELLE CHASSE?


FAA INFORMATION EFFECTIVE 08 SEPTEMBER 2022

Location

FAA Identifier: LA08
Lat/Long: 29-45-29.7500N 090-01-56.2500W
29-45.495833N 090-01.937500W
29.7582639,-90.0322917
(estimated)
Elevation: 0 ft. / 0 m (estimated)
Variation: 01E (2000)
From city: 6 miles S of BELLE CHASSE, LA
Time zone: UTC -5 (UTC -6 during Standard Time)
Zip code: 70037

Heliport Operations

Heliport use: Private use. Permission required prior to landing
Activation date: 11/2000
Control tower: no
ARTCC: HOUSTON CENTER
FSS: DE RIDDER FLIGHT SERVICE STATION
Attendance: UNATNDD
Segmented circle: no

Heliport Communications

WX ASOS at NEW (17 nm N): PHONE 504-245-4366
WX ASOS at MSY (18 nm NW): PHONE (504)471-4486

Nearby radio navigation aids

VOR radial/distance  VOR name  Freq  Var
HRVr193/5.7HARVEY VORTAC114.1002E
RQRr122/35.0RESERVE VOR/DME110.8002E
LEVr004/35.2LEEVILLE VORTAC113.5002E

Heliport Services

Runway Information

Helipad H1

Dimensions: 1400 x 200 ft. / 427 x 61 m
Surface: asphalt/concrete
Traffic pattern: leftleft

Heliport Ownership and Management from official FAA records

Ownership: Privately-owned
Owner: ERIC B. COVELL
1821 CLAIRE AVE
GRETNA, LA 70053-7443
Phone 504-656-0004
Manager: ERIC B. COVELL
1821 CLAIRE AVE
GRETNA, LA 70053-7443
Phone 504-656-0004

Heliport Operational Statistics

Aircraft based on the field: 1
Helicopters: 1
    

Additional Remarks

FOR CD CTC NEW ORLEANS APCH AT 504-471-4350.

Instrument Procedures

There are no published instrument procedures at LA08.

Some nearby airports with instrument procedures:

KNBG - New Orleans Naval Air Station Joint Reserve Base - Alvin Callender Field (4 nm N)
KNEW - Lakefront Airport (17 nm N)
KMSY - Louis Armstrong New Orleans International Airport (18 nm NW)
KGAO - South Lafourche Leonard Miller Jr.. Airport (22 nm SW)
KHUM - Houma-Terrebonne Airport (35 nm W)
 
Loc | Ops | Rwys | IFR | FBO | Links
Com | Nav | Svcs | Stats | Notes
Area around LA08 (Jesuits Bend Heliport)
 
Road maps at: MapQuest Bing Google
 
Aerial photo
No photo
 
Sectional chart

 
Airport distance calculator
Flying to Jesuits Bend Heliport? Find the distance to fly.

From to LA08

Sunrise and sunset
Times for 02-Oct-2022
 Local
(UTC-5)
 Zulu
(UTC)
Morning civil twilight06:3111:31
Sunrise06:5511:55
Sunset18:4423:44
Evening civil twilight19:0800:08

Current date and time
Zulu (UTC)  02-Oct-2022 09:44:19
Local (UTC-5)  02-Oct-2022 04:44:19
 
METAR
KNBG 
4nm N 
012155Z 34008KT 10SM CLR 28/09 A2994 RMK AO2 SLP136 T02780089 $
K7N0 
12nm N 
020856Z AUTO 01003KT 10SM CLR 20/13 A3003 RMK AO2 SLP167 6//// T02000128 58001 PNO $
KNEW 
18nm N 
020853Z AUTO 03011KT 10SM CLR 21/13 A3002 RMK AO2 SLP159 T02110128 58001
KMSY 
18nm NW 
020853Z 00000KT 10SM CLR 16/13 A3002 RMK AO2 SLP167 T01560128 58001
TAF
KNBG 
4nm N 
0207/0307 01008KT 9999 SKC QNH3003INS BECMG 0215/0217 VRB05KT 9999 SKC QNH3008INS T16/0212Z T26/0221Z FN00253
KNEW 
18nm N 
020521Z 0206/0306 02012KT P6SM SKC FM021500 02008KT P6SM SKC FM021900 34006KT P6SM SKC FM030100 01015KT P6SM FEW250
KMSY 
18nm NW 
020521Z 0206/0312 VRB04KT P6SM SKC FM021500 01008KT P6SM FEW250 FM030200 36005KT P6SM FEW250
NOTAMs
Click for the latest NOTAMs
NOTAMs are issued by the DoD/FAA and will open in a separate window not controlled by AirNav.

 

 
 

Would you like to see your business listed on this page?

 If your business provides an interesting product or service to pilots, flight crews, aircraft, or users of the Jesuits Bend Heliport, you should consider listing it here.  To start the listing process, click on the button below
 
Add a business
 

Other Pages about Jesuits Bend Heliport

Update a link
 
Copyright © AirNav, LLC. All rights reserved. Privacy Policy  Contact